Aérodrome :
LOGIN :

S'inscrire | Disclaimer

   EN    FR    IT 

 










Légende :    VFR   VFR Marginal   IFR   IFR Intensif   IFR Très Intensif
Visi : 
Plafond : 
>= 8 km
>= 3000ft
5 à 8 km
1000 à 3000 ft
1500m à 5 km
500 à 1000 ft
800 à 1500m
200 à 500 ft
< 800m
< 200 ft
Symboles :   Orages  Brouillard  Fortes neiges  Fortes précipitations  Vent > 20 kt
SIGMETs :   Divers  Orages  Givrage  Turbulence  Onde Orograph.  Cendres Volcan.







- Altitude de l'aérodrome : 616 ft
- Code IATA : PUF
- Voir les cartes d'approche


LFBP - Pau

DERNIER METAR :
  • 170330Z AUTO 14002KT 0300 R31/0325N R13/0350N FG VV/// 15/14 Q1020 NOSIG

METARs EXPIRÉS :
  • 170300Z AUTO 14003KT 0350 R31/0400N R13/0400N FG VV/// 15/15 Q1020 NOSIG
  • 170230Z AUTO VRB01KT 0350 0300 R31/0375N R13/0375N FG VV/// 15/15 Q1020 NOSIG
  • 170200Z AUTO 08002KT 0500 0450 R31/0800U R13/0550U FG VV/// 15/15 Q1021 TEMPO 0300 FG
  • 170130Z AUTO 09001KT 0400 0300 R31/0550N R13/0325N FG VV/// 15/14 Q1021 TEMPO 0300 FG
  • 170100Z AUTO VRB02KT 0450 0300 R31/1000U R13/0375N FG VV/// 14/14 Q1021 TEMPO 0300 FG

TAF AMD TAF LFBP
Valide du 17 à 00h jusqu'au 18 à 00h UTC


170042Z 1700/1724 VRB03KT CAVOK
TEMPO 1700/1706 4500 BR BKN005
PROB30
TEMPO 1700/1706 0300 FG VV///
Pas de NOTAMs connus pour ce terrain.



MET'MAP, la Météo Aéronautique d'un coup d'oeil ! - Copyright ORBIFLY Décembre 2007 - Disclaimer

ORBIFLY MET'MAP TEAM :

Programmation & Développement : Alexandra Zaïnal
Conception & Développement : Baudouin d'Aumeries
Co-Programmation & Développement : Marc-Olivier Méhu
Soutien technique & logistique : Manuel Goepfert

Contact : metmap@orbifly.com




SOURCES & CREDITS :

   NOAA